createdAt,value
2018-10-05T00:02:05.858Z,9.43
2018-10-05T00:04:31.864Z,9.20
2018-10-05T00:06:57.870Z,8.03
2018-10-05T00:09:23.849Z,8.17
2018-10-05T00:11:50.324Z,8.73
2018-10-05T00:14:17.022Z,9.00
2018-10-05T00:16:43.016Z,8.80
2018-10-05T00:19:09.001Z,8.77
2018-10-05T00:21:35.699Z,8.37
2018-10-05T00:24:01.692Z,8.47
2018-10-05T00:26:27.672Z,8.53
2018-10-05T00:28:54.417Z,8.77
2018-10-05T00:31:21.141Z,9.00
2018-10-05T00:33:47.128Z,9.13
2018-10-05T00:36:13.114Z,9.00
2018-10-05T00:38:39.854Z,9.20
2018-10-05T00:41:05.845Z,8.73
2018-10-05T00:43:31.847Z,9.33
2018-10-05T00:45:57.826Z,8.73
2018-10-05T00:48:24.522Z,9.03
2018-10-05T00:50:50.533Z,8.67
2018-10-05T00:53:16.575Z,9.07
2018-10-05T00:55:42.544Z,9.77
2018-10-05T00:58:08.522Z,8.03
2018-10-05T01:00:34.500Z,8.53
2018-10-05T01:03:01.213Z,8.70
2018-10-05T01:05:27.956Z,8.97
2018-10-05T01:07:54.674Z,9.20
2018-10-05T01:10:20.678Z,8.87
2018-10-05T01:12:46.648Z,8.73
2018-10-05T01:15:12.642Z,9.03
2018-10-05T01:17:38.610Z,9.07
2018-10-05T01:20:04.623Z,9.33
2018-10-05T01:22:30.598Z,9.10
2018-10-05T01:24:56.708Z,8.60
2018-10-05T01:27:22.611Z,8.67
2018-10-05T01:29:48.590Z,8.70
2018-10-05T01:32:14.607Z,7.93
2018-10-05T01:34:40.587Z,9.80
2018-10-05T01:37:06.582Z,9.10
2018-10-05T01:39:32.582Z,8.57
2018-10-05T01:41:58.585Z,9.17
2018-10-05T01:44:24.569Z,8.63
2018-10-05T01:46:50.592Z,9.30
2018-10-05T01:49:16.572Z,9.00
2018-10-05T01:51:42.499Z,8.37
2018-10-05T01:54:09.246Z,9.13
2018-10-05T01:56:35.956Z,8.77
2018-10-05T01:59:01.934Z,9.23
2018-10-05T02:01:27.902Z,8.87
2018-10-05T02:03:53.889Z,9.93
2018-10-05T02:06:19.859Z,9.70
2018-10-05T02:08:45.879Z,9.47
2018-10-05T02:11:11.855Z,9.57
2018-10-05T02:13:37.870Z,9.17
2018-10-05T02:16:03.860Z,10.17
2018-10-05T02:18:29.855Z,9.47
2018-10-05T02:20:55.837Z,8.67
2018-10-05T02:23:21.792Z,9.30
2018-10-05T02:25:47.775Z,9.90
2018-10-05T02:28:13.752Z,8.93
2018-10-05T02:30:39.777Z,10.27
2018-10-05T02:33:05.817Z,9.20
2018-10-05T02:35:31.788Z,9.07
2018-10-05T02:37:57.748Z,9.87
2018-10-05T02:40:23.748Z,9.33
2018-10-05T02:42:49.717Z,9.50
2018-10-05T02:45:16.457Z,9.77
2018-10-05T02:47:43.189Z,10.27
2018-10-05T02:50:09.168Z,9.73
2018-10-05T02:52:35.197Z,9.73
2018-10-05T02:55:01.206Z,9.50
2018-10-05T02:57:27.197Z,9.47
2018-10-05T02:59:53.902Z,9.63
2018-10-05T03:02:19.893Z,8.93
2018-10-05T03:04:45.862Z,8.73
2018-10-05T03:07:11.819Z,9.20
2018-10-05T03:09:38.536Z,9.60
2018-10-05T03:12:04.491Z,8.07
2018-10-05T03:14:30.499Z,8.53
2018-10-05T03:16:57.220Z,9.07
2018-10-05T03:19:23.195Z,9.20
2018-10-05T03:21:49.913Z,8.37
2018-10-05T03:24:15.910Z,9.77
2018-10-05T03:26:42.613Z,9.63
2018-10-05T03:29:08.606Z,9.23
2018-10-05T03:31:34.572Z,9.73
2018-10-05T03:34:00.604Z,10.00
2018-10-05T03:36:26.579Z,9.90
2018-10-05T03:38:52.508Z,9.80
2018-10-05T03:41:18.505Z,8.70
2018-10-05T03:43:44.486Z,9.00
2018-10-05T03:46:10.479Z,8.43
2018-10-05T03:48:36.440Z,8.23
2018-10-05T03:51:03.190Z,8.73
2018-10-05T03:53:29.897Z,8.97
2018-10-05T03:55:55.897Z,8.93
2018-10-05T03:58:21.884Z,9.23
2018-10-05T04:00:48.610Z,7.67
2018-10-05T04:03:14.619Z,8.73
2018-10-05T04:05:40.585Z,8.47
2018-10-05T04:08:06.565Z,8.33
2018-10-05T04:10:32.516Z,8.17
2018-10-05T04:12:59.248Z,8.10
2018-10-05T04:15:25.961Z,7.73
2018-10-05T04:17:51.962Z,8.40
2018-10-05T04:20:17.920Z,7.53
2018-10-05T04:22:43.921Z,7.93
2018-10-05T04:25:09.879Z,8.80
2018-10-05T04:27:35.832Z,8.03
2018-10-05T04:30:01.806Z,8.70
2018-10-05T04:32:27.777Z,8.57
2018-10-05T04:34:53.784Z,8.00
2018-10-05T04:37:20.488Z,8.17
2018-10-05T04:39:46.473Z,7.87
2018-10-05T04:42:12.449Z,8.27
2018-10-05T04:44:38.432Z,7.67
2018-10-05T04:47:04.412Z,8.30
2018-10-05T04:49:31.160Z,7.67
2018-10-05T04:51:57.162Z,7.87
2018-10-05T04:54:23.890Z,8.13
2018-10-05T04:56:49.871Z,8.43
2018-10-05T04:59:15.870Z,7.37
2018-10-05T05:01:41.812Z,7.23
2018-10-05T05:04:07.808Z,7.83
2018-10-05T05:06:33.765Z,7.13
2018-10-05T05:08:59.748Z,8.07
2018-10-05T05:11:26.470Z,7.00
2018-10-05T05:13:52.434Z,8.67
2018-10-05T05:16:18.432Z,7.50
2018-10-05T05:18:44.410Z,7.80
2018-10-05T05:21:10.427Z,7.77
2018-10-05T05:23:36.397Z,8.17
2018-10-05T05:26:03.135Z,7.60
2018-10-05T05:28:29.104Z,7.73
2018-10-05T05:30:55.079Z,6.73
2018-10-05T05:33:21.827Z,6.67
2018-10-05T05:35:48.565Z,6.97
2018-10-05T05:38:15.276Z,7.03
2018-10-05T05:40:41.238Z,7.07
2018-10-05T05:43:07.961Z,7.00
2018-10-05T05:45:33.923Z,8.13
2018-10-05T05:47:59.890Z,7.77
2018-10-05T05:50:25.864Z,7.07
2018-10-05T05:52:51.894Z,7.53
2018-10-05T05:55:17.882Z,7.33
2018-10-05T05:57:44.634Z,8.03
2018-10-05T06:00:11.326Z,7.63
2018-10-05T06:02:37.296Z,8.03
2018-10-05T06:05:03.261Z,6.80
2018-10-05T06:07:29.180Z,7.67
2018-10-05T06:09:55.155Z,8.27
2018-10-05T06:12:21.847Z,7.57
2018-10-05T06:14:47.854Z,8.63
2018-10-05T06:17:13.821Z,7.13
2018-10-05T06:19:39.788Z,8.50
2018-10-05T06:22:05.836Z,7.50
2018-10-05T06:24:31.758Z,8.40
2018-10-05T06:26:57.760Z,7.90
2018-10-05T06:29:23.762Z,8.27
2018-10-05T06:31:49.760Z,7.60
2018-10-05T06:34:15.719Z,8.77
2018-10-05T06:36:42.473Z,8.97
2018-10-05T06:39:08.508Z,8.00
2018-10-05T06:41:35.192Z,9.07
2018-10-05T06:44:01.206Z,8.60
2018-10-05T06:46:27.174Z,7.60
2018-10-05T06:48:53.214Z,7.57
2018-10-05T06:51:19.163Z,7.67
2018-10-05T06:53:45.169Z,8.70
2018-10-05T06:56:11.143Z,8.03
2018-10-05T06:58:37.881Z,7.40
2018-10-05T07:01:03.829Z,8.40
2018-10-05T07:03:29.827Z,8.00
2018-10-05T07:05:56.551Z,8.33
2018-10-05T07:08:22.541Z,7.83
2018-10-05T07:10:48.500Z,7.80
2018-10-05T07:13:14.506Z,6.93
2018-10-05T07:15:40.474Z,7.97
2018-10-05T07:18:06.468Z,6.80
2018-10-05T07:20:32.452Z,7.80
2018-10-05T07:22:58.465Z,7.37
2018-10-05T07:25:24.469Z,6.73
2018-10-05T07:27:50.500Z,6.37
2018-10-05T07:30:16.494Z,6.57
2018-10-05T07:32:43.232Z,6.33
2018-10-05T07:35:09.239Z,6.37
2018-10-05T07:37:35.213Z,6.20
2018-10-05T07:40:01.169Z,6.80
2018-10-05T07:42:27.195Z,5.80
2018-10-05T07:44:53.178Z,5.80
2018-10-05T07:47:19.157Z,5.83
2018-10-05T07:49:45.117Z,5.47
2018-10-05T07:52:11.109Z,6.10
2018-10-05T07:54:37.066Z,5.73
2018-10-05T07:57:03.088Z,6.00
2018-10-05T07:59:29.034Z,5.80
2018-10-05T08:01:55.057Z,5.60
2018-10-05T08:04:21.008Z,5.43
2018-10-05T08:06:47.005Z,5.73
2018-10-05T08:09:12.988Z,5.07
2018-10-05T08:11:39.711Z,5.20
2018-10-05T08:14:05.683Z,5.30
2018-10-05T08:16:31.708Z,5.57
2018-10-05T08:18:57.669Z,5.60
2018-10-05T08:21:23.728Z,5.60
2018-10-05T08:23:50.433Z,5.37
2018-10-05T08:26:16.449Z,5.63
2018-10-05T08:28:42.421Z,5.33
2018-10-05T08:31:08.418Z,5.77
2018-10-05T08:33:35.164Z,5.10
2018-10-05T08:36:01.160Z,5.63
2018-10-05T08:38:27.158Z,5.17
2018-10-05T08:40:53.116Z,5.27
2018-10-05T08:43:19.085Z,5.20
2018-10-05T08:45:45.080Z,5.17
2018-10-05T08:48:11.825Z,4.60
2018-10-05T08:50:38.555Z,4.57
2018-10-05T08:53:05.267Z,5.37
2018-10-05T08:55:31.255Z,5.47
2018-10-05T08:57:57.213Z,5.40
2018-10-05T09:00:23.269Z,4.97
2018-10-05T09:02:49.235Z,5.20
2018-10-05T09:05:15.271Z,4.97
2018-10-05T09:07:41.254Z,4.97
2018-10-05T09:10:07.278Z,5.40
2018-10-05T09:12:33.253Z,4.87
2018-10-05T09:14:59.254Z,5.27
2018-10-05T09:17:25.254Z,5.10
2018-10-05T09:19:51.270Z,5.30
2018-10-05T09:22:17.273Z,4.90
2018-10-05T09:24:43.294Z,5.20
2018-10-05T09:27:10.084Z,5.37
2018-10-05T09:29:36.135Z,5.00
2018-10-05T09:32:02.122Z,4.90
2018-10-05T09:34:28.128Z,5.33
2018-10-05T09:36:54.115Z,5.73
2018-10-05T09:39:20.080Z,5.20
2018-10-05T09:41:46.132Z,5.20
2018-10-05T09:44:12.104Z,5.50
2018-10-05T09:46:38.841Z,4.93
2018-10-05T09:49:04.836Z,5.67
2018-10-05T09:51:30.853Z,5.07
2018-10-05T09:53:56.838Z,4.67
2018-10-05T09:56:22.826Z,5.67
2018-10-05T09:58:49.570Z,5.43
2018-10-05T10:01:16.276Z,4.93
2018-10-05T10:03:42.284Z,5.35
2018-10-05T10:06:08.255Z,4.95
2018-10-05T10:08:41.038Z,4.60
2018-10-05T10:11:07.014Z,4.80
2018-10-05T10:13:33.017Z,5.05
2018-10-05T10:15:58.969Z,5.12
2018-10-05T10:18:24.985Z,4.65
2018-10-05T10:20:50.985Z,4.70
2018-10-05T10:23:16.983Z,4.47
2018-10-05T10:25:43.042Z,4.43
2018-10-05T10:28:09.085Z,4.40
2018-10-05T10:30:35.062Z,3.97
2018-10-05T10:33:01.045Z,4.90
2018-10-05T10:35:27.051Z,4.23
2018-10-05T10:37:53.022Z,4.70
2018-10-05T10:40:18.996Z,4.80
2018-10-05T10:42:45.033Z,4.77
2018-10-05T10:45:11.139Z,4.03
2018-10-05T10:47:37.118Z,4.17
2018-10-05T10:50:03.859Z,5.03
2018-10-05T10:52:29.812Z,4.90
2018-10-05T10:54:55.798Z,4.70
2018-10-05T10:57:22.553Z,4.57
2018-10-05T10:59:49.255Z,4.67
2018-10-05T11:02:15.255Z,4.80
2018-10-05T11:04:41.387Z,3.93
2018-10-05T11:07:07.268Z,4.27
2018-10-05T11:09:33.250Z,4.43
2018-10-05T11:11:59.298Z,4.10
2018-10-05T11:14:25.280Z,4.13
2018-10-05T11:16:51.373Z,4.17
2018-10-05T11:19:17.341Z,3.87
2018-10-05T11:21:43.326Z,3.90
2018-10-05T11:24:09.320Z,4.20
2018-10-05T11:26:36.052Z,4.07
2018-10-05T11:29:02.799Z,4.50
2018-10-05T11:31:29.018Z,3.70
2018-10-05T11:33:55.017Z,3.47
2018-10-05T11:36:21.758Z,3.77
2018-10-05T11:38:47.810Z,3.87
2018-10-05T11:41:13.780Z,3.57
2018-10-05T11:43:39.918Z,4.30
2018-10-05T11:46:05.905Z,3.70
2018-10-05T11:48:32.654Z,4.00
2018-10-05T11:50:58.648Z,3.53
2018-10-05T11:53:25.381Z,3.40
2018-10-05T11:55:51.336Z,3.30
2018-10-05T11:58:17.307Z,3.30
2018-10-05T12:00:43.322Z,3.57
2018-10-05T12:03:09.282Z,3.57
2018-10-05T12:05:36.044Z,3.20
2018-10-05T12:08:02.036Z,3.70
2018-10-05T12:10:28.203Z,3.63
2018-10-05T12:17:32.323Z,3.57
2018-10-05T12:19:58.434Z,3.70
2018-10-05T12:22:24.368Z,4.23
2018-10-05T12:24:50.361Z,4.00
2018-10-05T12:27:16.388Z,3.97
2018-10-05T12:29:42.382Z,4.03
2018-10-05T12:32:08.407Z,3.60
2018-10-05T12:34:34.406Z,3.93
2018-10-05T12:37:00.428Z,4.47
2018-10-05T12:39:26.426Z,3.63
2018-10-05T12:41:53.233Z,3.90
2018-10-05T12:44:19.203Z,3.50
2018-10-05T12:46:45.920Z,4.37
2018-10-05T12:49:12.694Z,3.93
2018-10-05T12:51:38.677Z,3.93
2018-10-05T12:54:04.696Z,3.40
2018-10-05T12:56:30.696Z,3.10
2018-10-05T12:58:56.709Z,2.97
2018-10-05T13:01:22.682Z,3.40
2018-10-05T13:03:48.691Z,2.87
2018-10-05T13:06:14.683Z,2.70
2018-10-05T13:08:40.634Z,3.17
2018-10-05T13:11:06.639Z,3.30
2018-10-05T13:13:32.625Z,3.17
2018-10-05T13:15:58.626Z,2.90
2018-10-05T13:18:24.613Z,2.60
2018-10-05T13:20:50.656Z,2.40
2018-10-05T13:23:16.635Z,2.60
2018-10-05T13:25:42.652Z,2.43
2018-10-05T13:28:08.633Z,2.50
2018-10-05T13:30:34.625Z,2.90
2018-10-05T13:33:00.585Z,2.30
2018-10-05T13:35:26.577Z,2.60
2018-10-05T13:37:52.563Z,2.70
2018-10-05T13:40:18.594Z,2.20
2018-10-05T13:42:44.573Z,2.60
2018-10-05T13:45:11.335Z,2.33
2018-10-05T13:47:38.067Z,3.10
2018-10-05T13:50:04.808Z,2.53
2018-10-05T13:52:31.526Z,2.33
2018-10-05T13:54:57.513Z,2.10
2018-10-05T13:57:23.504Z,2.00
2018-10-05T13:59:49.515Z,2.10
2018-10-05T14:02:16.265Z,2.17
2018-10-05T14:04:42.240Z,2.40
2018-10-05T14:07:08.366Z,2.00
2018-10-05T14:09:34.252Z,2.50
2018-10-05T14:12:00.828Z,2.27
2018-10-05T14:14:26.816Z,2.20
2018-10-05T14:16:52.832Z,2.93
2018-10-05T14:19:18.885Z,2.10
2018-10-05T14:21:45.624Z,2.47
2018-10-05T14:24:12.289Z,2.40
2018-10-05T14:26:38.390Z,2.47
2018-10-05T14:29:04.360Z,2.63
2018-10-05T14:31:31.079Z,2.33
2018-10-05T14:33:57.115Z,2.30
2018-10-05T14:36:23.063Z,2.10
2018-10-05T14:38:49.790Z,2.37
2018-10-05T14:41:16.580Z,1.87
2018-10-05T14:43:42.571Z,1.97
2018-10-05T14:46:08.548Z,2.10
2018-10-05T14:48:34.569Z,1.80
2018-10-05T14:51:00.553Z,2.10
2018-10-05T14:53:26.538Z,1.80
2018-10-05T14:55:53.301Z,2.03
2018-10-05T14:58:19.286Z,2.17
2018-10-05T15:00:45.300Z,2.30
2018-10-05T15:03:11.289Z,2.03
2018-10-05T15:05:37.277Z,2.20
2018-10-05T15:08:03.984Z,1.70
2018-10-05T15:10:29.986Z,1.97
2018-10-05T15:12:56.026Z,2.03
2018-10-05T15:15:22.704Z,1.93
2018-10-05T15:17:49.426Z,2.20
2018-10-05T15:20:15.406Z,2.07
2018-10-05T15:22:41.403Z,2.10
2018-10-05T15:25:07.450Z,2.17
2018-10-05T15:27:33.456Z,2.17
2018-10-05T15:29:59.442Z,2.37
2018-10-05T15:32:25.460Z,2.37
2018-10-05T15:34:51.452Z,2.13
2018-10-05T15:37:17.435Z,2.33
2018-10-05T15:39:44.161Z,2.20
2018-10-05T15:42:10.138Z,2.27
2018-10-05T15:44:36.163Z,2.07
2018-10-05T15:47:02.132Z,2.27
2018-10-05T15:49:28.875Z,1.93
2018-10-05T15:51:55.587Z,2.03
2018-10-05T15:54:21.591Z,2.07
2018-10-05T15:56:47.565Z,2.07
2018-10-05T15:59:14.431Z,1.73
2018-10-05T16:01:40.340Z,2.03
2018-10-05T16:04:06.357Z,2.03
2018-10-05T16:06:32.374Z,2.20
2018-10-05T16:08:59.089Z,1.93
2018-10-05T16:11:25.090Z,1.80
2018-10-05T16:13:51.075Z,2.03
2018-10-05T16:16:17.092Z,2.17
2018-10-05T16:18:43.079Z,1.97
2018-10-05T16:21:09.102Z,1.93
2018-10-05T16:23:35.084Z,2.00
2018-10-05T16:26:01.072Z,2.30
2018-10-05T16:28:27.777Z,2.60
2018-10-05T16:30:53.812Z,2.30
2018-10-05T16:33:19.798Z,2.10
2018-10-05T16:35:45.808Z,2.00
2018-10-05T16:38:11.788Z,1.93
2018-10-05T16:40:37.800Z,1.73
2018-10-05T16:43:03.767Z,2.13
2018-10-05T16:45:30.491Z,2.10
2018-10-05T16:47:57.240Z,2.03
2018-10-05T16:50:23.932Z,2.37
2018-10-05T16:52:49.973Z,2.03
2018-10-05T16:55:15.951Z,2.27
2018-10-05T16:57:41.955Z,2.13
2018-10-05T17:00:08.656Z,1.90
2018-10-05T17:02:34.677Z,1.87
2018-10-05T17:05:00.657Z,1.80
2018-10-05T17:07:26.663Z,2.13
2018-10-05T17:09:52.629Z,1.63
2018-10-05T17:12:18.653Z,2.30
2018-10-05T17:14:44.647Z,1.83
2018-10-05T17:17:10.664Z,2.30
2018-10-05T17:19:37.410Z,1.97
2018-10-05T17:22:03.392Z,1.93
2018-10-05T17:24:29.392Z,2.53
2018-10-05T17:26:55.390Z,2.30
2018-10-05T17:29:21.437Z,1.90
2018-10-05T17:31:47.391Z,2.33
2018-10-05T17:34:13.408Z,2.10
2018-10-05T17:36:39.392Z,2.20
2018-10-05T17:39:06.181Z,2.20
2018-10-05T17:41:32.912Z,2.00
2018-10-05T17:43:58.938Z,2.40
2018-10-05T17:46:24.918Z,2.33
2018-10-05T17:48:50.940Z,2.30
2018-10-05T17:51:17.720Z,2.30
2018-10-05T17:53:44.478Z,2.43
2018-10-05T17:56:11.289Z,1.93
2018-10-05T17:58:37.275Z,2.43
2018-10-05T18:01:03.296Z,2.20
2018-10-05T18:03:29.278Z,2.13
2018-10-05T18:05:56.040Z,2.20
2018-10-05T18:08:22.831Z,2.30
2018-10-05T18:10:48.822Z,2.47
2018-10-05T18:13:14.816Z,2.43
2018-10-05T18:15:41.590Z,2.90
2018-10-05T18:18:07.588Z,3.07
2018-10-05T18:20:34.341Z,2.67
2018-10-05T18:23:01.067Z,2.77
2018-10-05T18:25:27.814Z,2.73
2018-10-05T18:27:54.522Z,3.13
2018-10-05T18:30:20.507Z,3.10
2018-10-05T18:32:46.471Z,3.27
2018-10-05T18:35:12.500Z,3.10
2018-10-05T18:37:39.229Z,2.93
2018-10-05T18:40:05.267Z,3.33
2018-10-05T18:42:31.245Z,3.00
2018-10-05T18:44:57.235Z,3.70
2018-10-05T18:47:23.207Z,3.53
2018-10-05T18:49:49.214Z,4.00
2018-10-05T18:52:15.267Z,3.37
2018-10-05T18:54:41.244Z,4.00
2018-10-05T18:57:07.244Z,3.30
2018-10-05T18:59:34.033Z,4.07
2018-10-05T19:02:00.746Z,3.47
2018-10-05T19:04:26.747Z,3.50
2018-10-05T19:06:53.503Z,3.70
2018-10-05T19:09:19.510Z,3.47
2018-10-05T19:11:45.514Z,4.10
2018-10-05T19:14:11.502Z,3.50
2018-10-05T19:16:37.539Z,3.83
2018-10-05T19:19:03.515Z,4.00
2018-10-05T19:21:29.567Z,3.93
2018-10-05T19:23:55.550Z,4.03
2018-10-05T19:26:22.412Z,3.90
2018-10-05T19:28:48.308Z,3.80
2018-10-05T19:31:14.300Z,4.30
2018-10-05T19:33:40.275Z,3.77
2018-10-05T19:36:07.076Z,3.43
2018-10-05T19:38:33.024Z,4.07
2018-10-05T19:40:59.051Z,4.20
2018-10-05T19:43:25.799Z,4.00
2018-10-05T19:45:52.519Z,3.87
2018-10-05T19:48:18.527Z,4.27
2018-10-05T19:50:44.535Z,4.67
2018-10-05T19:53:10.591Z,4.33
2018-10-05T19:55:36.597Z,3.80
2018-10-05T19:58:02.595Z,4.07
2018-10-05T20:00:28.584Z,3.83
2018-10-05T20:02:54.632Z,4.00
2018-10-05T20:05:20.631Z,3.80
2018-10-05T20:07:47.374Z,3.87
2018-10-05T20:10:13.372Z,4.03
2018-10-05T20:12:40.117Z,3.70
2018-10-05T20:15:06.877Z,4.10
2018-10-05T20:17:32.871Z,4.13
2018-10-05T20:19:58.898Z,3.93
2018-10-05T20:22:24.887Z,4.07
2018-10-05T20:24:50.903Z,3.90
2018-10-05T20:27:16.877Z,4.83
2018-10-05T20:29:42.868Z,5.13
2018-10-05T20:32:08.860Z,4.87
2018-10-05T20:34:34.857Z,5.27
2018-10-05T20:37:01.037Z,5.03
2018-10-05T20:39:26.828Z,5.00
2018-10-05T20:41:52.822Z,5.43
2018-10-05T20:44:19.523Z,5.30
2018-10-05T20:46:45.535Z,5.30
2018-10-05T20:49:11.485Z,5.63
2018-10-05T20:51:37.499Z,5.20
2018-10-05T20:54:04.254Z,6.10
2018-10-05T20:56:30.214Z,6.37
2018-10-05T20:58:56.217Z,5.77
2018-10-05T21:01:22.192Z,6.47
2018-10-05T21:03:48.217Z,5.83
2018-10-05T21:06:14.184Z,5.70
2018-10-05T21:08:40.934Z,5.57
2018-10-05T21:11:06.964Z,6.27
2018-10-05T21:13:32.976Z,5.90
2018-10-05T21:15:58.967Z,6.13
2018-10-05T21:18:25.769Z,6.17
2018-10-05T21:20:51.746Z,6.07
2018-10-05T21:23:18.483Z,5.67
2018-10-05T21:25:44.496Z,5.80
2018-10-05T21:28:10.479Z,6.67
2018-10-05T21:30:36.475Z,6.27
2018-10-05T21:33:03.529Z,6.87
2018-10-05T21:35:30.194Z,6.30
2018-10-05T21:37:56.178Z,6.27
2018-10-05T21:40:22.214Z,6.00
2018-10-05T21:42:48.197Z,6.20
2018-10-05T21:45:14.179Z,6.87
2018-10-05T21:47:40.182Z,5.73
2018-10-05T21:50:06.175Z,6.53
2018-10-05T21:52:32.232Z,6.30
2018-10-05T21:54:58.960Z,6.03
2018-10-05T21:57:25.774Z,6.53
2018-10-05T21:59:51.901Z,5.80
2018-10-05T22:02:18.946Z,5.27
2018-10-05T22:04:44.934Z,5.37
2018-10-05T22:07:10.924Z,5.70
2018-10-05T22:09:37.628Z,6.07
2018-10-05T22:12:03.688Z,5.83
2018-10-05T22:14:30.400Z,5.83
2018-10-05T22:16:56.452Z,6.10
2018-10-05T22:19:22.477Z,5.40
2018-10-05T22:21:48.510Z,5.53
2018-10-05T22:24:15.257Z,5.80
2018-10-05T22:26:42.000Z,5.53
2018-10-05T22:29:08.721Z,5.97
2018-10-05T22:31:34.693Z,5.13
2018-10-05T22:34:00.668Z,6.10
2018-10-05T22:36:27.390Z,5.37
2018-10-05T22:38:53.383Z,5.47
2018-10-05T22:41:19.319Z,5.70
2018-10-05T22:43:45.332Z,5.40
2018-10-05T22:46:11.296Z,5.33
2018-10-05T22:48:38.052Z,5.33
2018-10-05T22:51:04.058Z,5.87
2018-10-05T22:53:30.056Z,5.60
2018-10-05T22:55:56.041Z,5.70
2018-10-05T22:58:22.062Z,5.73
2018-10-05T23:00:48.049Z,5.87
2018-10-05T23:03:14.050Z,6.20
2018-10-05T23:05:39.994Z,5.70
2018-10-05T23:08:06.792Z,5.97
2018-10-05T23:10:32.772Z,5.60
2018-10-05T23:12:59.492Z,5.60
2018-10-05T23:15:26.229Z,6.00
2018-10-05T23:17:52.186Z,5.83
2018-10-05T23:20:18.186Z,5.60
2018-10-05T23:22:44.120Z,5.53
2018-10-05T23:25:10.877Z,5.40
2018-10-05T23:27:36.846Z,6.00
2018-10-05T23:30:02.865Z,5.97
2018-10-05T23:32:29.612Z,5.73
2018-10-05T23:34:56.430Z,5.57
2018-10-05T23:37:22.411Z,5.03
2018-10-05T23:39:48.404Z,4.97
2018-10-05T23:42:14.405Z,5.50
2018-10-05T23:44:40.401Z,5.40
2018-10-05T23:47:06.426Z,5.90
2018-10-05T23:49:32.432Z,5.80
2018-10-05T23:51:58.435Z,5.73
2018-10-05T23:54:25.164Z,5.10
2018-10-05T23:56:51.214Z,5.30
2018-10-05T23:59:17.908Z,5.47
